createdAt,value
2023-01-29T00:01:24.283Z,100996.00
2023-01-29T00:03:51.692Z,101001.34
2023-01-29T00:06:18.404Z,100994.91
2023-01-29T00:08:49.916Z,100997.47
2023-01-29T00:11:20.649Z,100998.34
2023-01-29T00:13:54.640Z,101007.28
2023-01-29T00:16:28.163Z,101017.47
2023-01-29T00:18:59.195Z,101012.00
2023-01-29T00:21:27.998Z,101019.59
2023-01-29T00:23:57.067Z,101018.81
2023-01-29T00:26:28.576Z,101015.84
2023-01-29T00:28:59.693Z,101014.59
2023-01-29T00:31:28.899Z,101014.94
2023-01-29T00:33:55.620Z,101018.84
2023-01-29T00:36:25.441Z,101017.50
2023-01-29T00:38:58.939Z,101022.06
2023-01-29T00:41:48.077Z,101019.28
2023-01-29T00:44:33.750Z,101023.66
2023-01-29T00:47:03.136Z,101027.53
2023-01-29T00:49:37.965Z,101025.88
2023-01-29T00:52:27.525Z,101033.78
2023-01-29T00:54:56.753Z,101020.97
2023-01-29T00:57:28.053Z,101018.72
2023-01-29T00:59:57.350Z,101029.84
2023-01-29T01:02:45.519Z,101030.50
2023-01-29T01:05:17.992Z,101041.31
2023-01-29T01:07:48.792Z,101032.50
2023-01-29T01:10:26.321Z,101027.25
2023-01-29T01:12:55.517Z,101034.94
2023-01-29T01:15:23.276Z,101032.47
2023-01-29T01:17:57.047Z,101039.50
2023-01-29T01:20:24.041Z,101038.88
2023-01-29T01:22:51.451Z,101046.34
2023-01-29T01:25:21.954Z,101036.53
2023-01-29T01:27:54.985Z,101044.78
2023-01-29T01:30:22.256Z,101048.53
2023-01-29T01:32:51.207Z,101043.16
2023-01-29T01:35:22.003Z,101042.16
2023-01-29T01:37:59.393Z,101047.25
2023-01-29T01:40:27.624Z,101048.28
2023-01-29T01:42:57.403Z,101047.91
2023-01-29T01:45:27.269Z,101048.34
2023-01-29T01:48:06.863Z,101055.00
2023-01-29T01:50:40.911Z,101049.66
2023-01-29T01:53:10.968Z,101045.81
2023-01-29T01:55:38.477Z,101055.84
2023-01-29T01:58:07.819Z,101050.59
2023-01-29T02:00:41.572Z,101055.13
2023-01-29T02:03:27.020Z,101052.03
2023-01-29T02:06:12.348Z,101049.72
2023-01-29T02:09:03.368Z,101045.63
2023-01-29T02:11:35.630Z,101059.66
2023-01-29T02:14:08.938Z,101059.41
2023-01-29T02:16:36.004Z,101067.31
2023-01-29T02:19:06.081Z,101068.34
2023-01-29T02:21:49.168Z,101062.75
2023-01-29T02:24:22.263Z,101069.41
2023-01-29T02:27:00.250Z,101070.34
2023-01-29T02:29:47.191Z,101078.34
2023-01-29T02:32:27.390Z,101070.97
2023-01-29T02:35:32.191Z,101080.47
2023-01-29T02:38:04.965Z,101078.47
2023-01-29T02:40:37.403Z,101083.44
2023-01-29T02:43:20.566Z,101093.03
2023-01-29T02:46:05.574Z,101094.66
2023-01-29T02:48:42.715Z,101093.63
2023-01-29T02:51:19.459Z,101089.53
2023-01-29T02:53:46.184Z,101086.06
2023-01-29T02:56:23.087Z,101102.56
2023-01-29T02:58:52.120Z,101105.91
2023-01-29T03:01:23.738Z,101098.34
2023-01-29T03:03:53.379Z,101096.03
2023-01-29T03:06:28.411Z,101096.81
2023-01-29T03:09:24.688Z,101098.44
2023-01-29T03:11:52.874Z,101092.53
2023-01-29T03:14:52.549Z,101099.97
2023-01-29T03:17:22.632Z,101099.38
2023-01-29T03:19:49.667Z,101099.97
2023-01-29T03:22:24.076Z,101094.72
2023-01-29T03:25:16.303Z,101100.44
2023-01-29T03:28:10.595Z,101103.88
2023-01-29T03:31:00.097Z,101096.03
2023-01-29T03:33:50.331Z,101110.31
2023-01-29T03:36:23.762Z,101101.56
2023-01-29T03:38:53.081Z,101110.19
2023-01-29T03:41:23.619Z,101110.75
2023-01-29T03:44:12.990Z,101109.88
2023-01-29T03:46:58.768Z,101122.03
2023-01-29T03:49:28.709Z,101119.47
2023-01-29T03:51:57.822Z,101110.75
2023-01-29T03:54:43.819Z,101106.22
2023-01-29T03:57:33.768Z,101108.22
2023-01-29T04:00:07.924Z,101111.25
2023-01-29T04:03:12.796Z,101107.38
2023-01-29T04:05:42.913Z,101099.63
2023-01-29T04:08:23.219Z,101104.44
2023-01-29T04:10:49.875Z,101093.53
2023-01-29T04:13:19.216Z,101109.09
2023-01-29T04:15:50.249Z,101107.88
2023-01-29T04:18:27.538Z,101111.03
2023-01-29T04:21:03.125Z,101110.59
2023-01-29T04:23:29.831Z,101104.03
2023-01-29T04:26:08.816Z,101108.31
2023-01-29T04:28:44.001Z,101107.56
2023-01-29T04:31:13.690Z,101093.63
2023-01-29T04:34:01.897Z,101103.88
2023-01-29T04:36:28.614Z,101105.22
2023-01-29T04:39:00.709Z,101110.69
2023-01-29T04:41:34.470Z,101106.66
2023-01-29T04:44:06.800Z,101105.31
2023-01-29T04:46:43.001Z,101109.56
2023-01-29T04:49:18.087Z,101110.13
2023-01-29T04:51:48.393Z,101105.22
2023-01-29T04:54:15.093Z,101119.78
2023-01-29T04:56:56.967Z,101115.75
2023-01-29T04:59:31.092Z,101111.94
2023-01-29T05:02:00.196Z,101111.28
2023-01-29T05:04:30.084Z,101116.13
2023-01-29T05:06:59.125Z,101104.75
2023-01-29T05:09:25.720Z,101100.66
2023-01-29T05:11:52.471Z,101113.72
2023-01-29T05:14:19.264Z,101108.69
2023-01-29T05:16:47.395Z,101108.59
2023-01-29T05:19:14.999Z,101104.28
2023-01-29T05:21:42.473Z,101101.44
2023-01-29T05:24:29.453Z,101094.19
2023-01-29T05:27:17.063Z,101100.91
2023-01-29T05:29:45.769Z,101101.47
2023-01-29T05:32:15.568Z,101096.09
2023-01-29T05:34:44.743Z,101100.25
2023-01-29T05:37:13.472Z,101101.13
2023-01-29T05:39:40.105Z,101104.47
2023-01-29T05:42:06.751Z,101096.59
2023-01-29T05:44:35.796Z,101098.22
2023-01-29T05:47:04.501Z,101105.00
2023-01-29T05:49:31.098Z,101111.94
2023-01-29T05:51:57.809Z,101107.13
2023-01-29T05:54:27.080Z,101113.19
2023-01-29T05:56:54.181Z,101116.06
2023-01-29T05:59:20.903Z,101113.06
2023-01-29T06:01:47.615Z,101112.94
2023-01-29T06:04:14.739Z,101122.72
2023-01-29T06:06:41.408Z,101116.94
2023-01-29T06:09:12.649Z,101125.06
2023-01-29T06:11:39.794Z,101119.72
2023-01-29T06:14:06.560Z,101132.19
2023-01-29T06:16:33.406Z,101128.25
2023-01-29T06:19:00.129Z,101134.94
2023-01-29T06:21:31.909Z,101139.22
2023-01-29T06:23:58.555Z,101142.78
2023-01-29T06:26:27.746Z,101151.47
2023-01-29T06:28:54.343Z,101159.66
2023-01-29T06:31:37.187Z,101163.66
2023-01-29T06:34:07.322Z,101160.41
2023-01-29T06:36:34.047Z,101160.97
2023-01-29T06:39:03.027Z,101162.63
2023-01-29T06:41:30.221Z,101169.13
2023-01-29T06:43:59.345Z,101172.88
2023-01-29T06:46:28.694Z,101181.31
2023-01-29T06:48:57.493Z,101173.84
2023-01-29T06:51:26.513Z,101174.66
2023-01-29T06:53:57.691Z,101178.56
2023-01-29T06:56:27.012Z,101179.59
2023-01-29T06:58:56.372Z,101191.56
2023-01-29T07:01:35.069Z,101186.34
2023-01-29T07:04:03.081Z,101185.16
2023-01-29T07:06:29.944Z,101180.56
2023-01-29T07:08:56.874Z,101179.28
2023-01-29T07:11:23.498Z,101178.91
2023-01-29T07:13:55.466Z,101173.13
2023-01-29T07:16:22.168Z,101175.28
2023-01-29T07:18:49.008Z,101177.16
2023-01-29T07:21:15.752Z,101160.97
2023-01-29T07:23:43.712Z,101173.28
2023-01-29T07:26:12.628Z,101166.63
2023-01-29T07:28:40.123Z,101158.47
2023-01-29T07:31:07.822Z,101168.16
2023-01-29T07:33:39.666Z,101166.84
2023-01-29T07:36:12.559Z,101166.69
2023-01-29T07:38:39.215Z,101159.34
2023-01-29T07:41:06.271Z,101154.31
2023-01-29T07:43:35.955Z,101146.06
2023-01-29T07:46:03.472Z,101143.84
2023-01-29T07:48:32.890Z,101143.63
2023-01-29T07:50:59.781Z,101151.91
2023-01-29T07:53:27.045Z,101161.13
2023-01-29T07:55:56.189Z,101161.97
2023-01-29T07:58:22.790Z,101157.63
2023-01-29T08:00:49.506Z,101146.41
2023-01-29T08:03:17.403Z,101156.25
2023-01-29T08:05:45.152Z,101158.03
2023-01-29T08:08:11.910Z,101161.00
2023-01-29T08:10:39.282Z,101172.03
2023-01-29T08:13:06.452Z,101159.94
2023-01-29T08:15:33.015Z,101162.66
2023-01-29T08:18:02.370Z,101169.66
2023-01-29T08:20:29.040Z,101168.75
2023-01-29T08:23:01.686Z,101168.34
2023-01-29T08:25:29.447Z,101166.91
2023-01-29T08:27:57.101Z,101174.50
2023-01-29T08:30:24.591Z,101176.19
2023-01-29T08:32:51.283Z,101167.28
2023-01-29T08:35:20.748Z,101170.97
2023-01-29T08:37:56.896Z,101171.31
2023-01-29T08:40:28.524Z,101186.09
2023-01-29T08:43:04.062Z,101184.41
2023-01-29T08:45:32.213Z,101185.88
2023-01-29T08:47:59.066Z,101198.59
2023-01-29T08:50:25.876Z,101196.34
2023-01-29T08:52:54.967Z,101208.84
2023-01-29T08:55:21.601Z,101203.69
2023-01-29T08:57:48.211Z,101217.28
2023-01-29T09:00:15.503Z,101218.84
2023-01-29T09:02:45.265Z,101216.69
2023-01-29T09:05:14.902Z,101212.44
2023-01-29T09:07:41.872Z,101214.56
2023-01-29T09:10:14.307Z,101197.28
2023-01-29T09:12:40.968Z,101215.47
2023-01-29T09:15:08.270Z,101218.88
2023-01-29T09:17:41.166Z,101218.59
2023-01-29T09:20:10.583Z,101214.44
2023-01-29T09:22:37.171Z,101215.56
2023-01-29T09:25:04.128Z,101213.91
2023-01-29T09:27:30.820Z,101212.00
2023-01-29T09:29:57.552Z,101214.75
2023-01-29T09:32:51.964Z,101218.25
2023-01-29T09:35:14.230Z,101228.03
2023-01-29T09:37:41.327Z,101227.84
2023-01-29T09:40:11.238Z,101229.25
2023-01-29T09:42:42.377Z,101232.38
2023-01-29T09:45:16.370Z,101230.13
2023-01-29T09:47:44.783Z,101237.47
2023-01-29T09:50:20.220Z,101241.66
2023-01-29T09:52:50.154Z,101232.28
2023-01-29T09:55:25.716Z,101236.69
2023-01-29T09:57:53.608Z,101234.66
2023-01-29T10:00:23.366Z,101235.44
2023-01-29T10:03:01.447Z,101227.66
2023-01-29T10:05:36.564Z,101242.44
2023-01-29T10:08:06.896Z,101236.94
2023-01-29T10:10:36.460Z,101248.72
2023-01-29T10:13:24.791Z,101243.19
2023-01-29T10:16:00.816Z,101241.56
2023-01-29T10:18:33.786Z,101244.63
2023-01-29T10:21:07.461Z,101235.28
2023-01-29T10:23:34.943Z,101234.22
2023-01-29T10:26:01.834Z,101232.72
2023-01-29T10:28:28.823Z,101225.53
2023-01-29T10:30:58.916Z,101232.53
2023-01-29T10:33:27.529Z,101236.31
2023-01-29T10:35:58.256Z,101229.66
2023-01-29T10:38:29.336Z,101231.59
2023-01-29T10:41:01.489Z,101237.00
2023-01-29T10:43:48.524Z,101228.19
2023-01-29T10:46:33.541Z,101221.84
2023-01-29T10:49:00.342Z,101209.88
2023-01-29T10:51:29.912Z,101218.69
2023-01-29T10:53:57.096Z,101211.94
2023-01-29T10:56:42.572Z,101208.50
2023-01-29T10:59:29.443Z,101201.16
2023-01-29T11:01:59.456Z,101193.72
2023-01-29T11:04:28.882Z,101189.22
2023-01-29T11:07:00.214Z,101185.97
2023-01-29T11:09:34.978Z,101190.94
2023-01-29T11:12:06.259Z,101192.16
2023-01-29T11:14:52.986Z,101194.72
2023-01-29T11:17:20.845Z,101194.00
2023-01-29T11:19:50.966Z,101180.28
2023-01-29T11:22:20.074Z,101170.09
2023-01-29T11:24:50.211Z,101165.84
2023-01-29T11:27:23.188Z,101166.09
2023-01-29T11:29:55.191Z,101167.91
2023-01-29T11:32:27.848Z,101160.72
2023-01-29T11:34:59.390Z,101155.34
2023-01-29T11:37:35.288Z,101156.03
2023-01-29T11:40:04.348Z,101147.44
2023-01-29T11:42:35.084Z,101136.31
2023-01-29T11:45:04.520Z,101141.19
2023-01-29T11:47:35.941Z,101135.03
2023-01-29T11:50:03.239Z,101118.41
2023-01-29T11:52:37.099Z,101126.06
2023-01-29T11:55:04.567Z,101113.72
2023-01-29T11:57:34.282Z,101119.72
2023-01-29T12:00:02.785Z,101120.03
2023-01-29T12:02:35.687Z,101122.44
2023-01-29T12:05:06.191Z,101120.59
2023-01-29T12:07:37.458Z,101111.88
2023-01-29T12:10:06.339Z,101121.88
2023-01-29T12:12:33.400Z,101128.41
2023-01-29T12:15:26.425Z,101113.06
2023-01-29T12:17:59.012Z,101104.69
2023-01-29T12:20:28.267Z,101109.56
2023-01-29T12:23:13.815Z,101100.81
2023-01-29T12:25:40.512Z,101101.50
2023-01-29T12:28:20.051Z,101101.38
2023-01-29T12:31:00.525Z,101090.97
2023-01-29T12:33:35.241Z,101090.97
2023-01-29T12:36:03.291Z,101103.06
2023-01-29T12:38:30.328Z,101100.63
2023-01-29T12:41:00.698Z,101103.41
2023-01-29T12:43:33.143Z,101091.66
2023-01-29T12:45:59.971Z,101096.25
2023-01-29T12:48:28.400Z,101092.13
2023-01-29T12:50:55.093Z,101089.19
2023-01-29T12:53:24.700Z,101093.09
2023-01-29T12:55:59.019Z,101096.09
2023-01-29T12:58:30.503Z,101088.91
2023-01-29T13:00:57.616Z,101087.84
2023-01-29T13:03:28.694Z,101086.72
2023-01-29T13:05:59.781Z,101077.22
2023-01-29T13:08:33.408Z,101072.72
2023-01-29T13:11:03.420Z,101071.84
2023-01-29T13:13:36.270Z,101061.31
2023-01-29T13:16:08.085Z,101056.25
2023-01-29T13:18:41.197Z,101053.75
2023-01-29T13:21:11.770Z,101042.34
2023-01-29T13:23:41.968Z,101052.88
2023-01-29T13:26:09.181Z,101034.41
2023-01-29T13:28:35.827Z,101028.09
2023-01-29T13:31:11.763Z,101028.63
2023-01-29T13:33:41.385Z,101034.13
2023-01-29T13:36:10.658Z,101034.25
2023-01-29T13:38:37.292Z,101040.34
2023-01-29T13:41:04.733Z,101040.66
2023-01-29T13:43:35.830Z,101044.41
2023-01-29T13:46:07.543Z,101038.25
2023-01-29T13:48:37.167Z,101046.69
2023-01-29T13:51:10.282Z,101041.00
2023-01-29T13:53:40.912Z,101032.28
2023-01-29T13:56:28.643Z,101031.84
2023-01-29T13:58:55.993Z,101025.81
2023-01-29T14:01:41.518Z,101021.28
2023-01-29T14:04:26.792Z,101025.16
2023-01-29T14:06:56.839Z,101032.34
2023-01-29T14:09:34.299Z,101042.63
2023-01-29T14:12:01.413Z,101040.34
2023-01-29T14:14:47.419Z,101037.81
2023-01-29T14:17:16.963Z,101050.00
2023-01-29T14:19:47.740Z,101052.00
2023-01-29T14:22:21.448Z,101050.59
2023-01-29T14:24:48.205Z,101053.81
2023-01-29T14:27:19.737Z,101048.50
2023-01-29T14:29:46.355Z,101066.91
2023-01-29T14:32:21.357Z,101064.25
2023-01-29T14:34:56.335Z,101062.41
2023-01-29T14:37:27.610Z,101070.53
2023-01-29T14:39:58.259Z,101064.75
2023-01-29T14:42:34.974Z,101057.09
2023-01-29T14:45:23.130Z,101059.50
2023-01-29T14:47:49.726Z,101056.69
2023-01-29T14:50:34.799Z,101057.53
2023-01-29T14:53:02.127Z,101060.25
2023-01-29T14:55:47.597Z,101069.50
2023-01-29T14:58:19.049Z,101073.59
2023-01-29T15:00:46.689Z,101068.72
2023-01-29T15:03:18.421Z,101076.47
2023-01-29T15:05:45.081Z,101074.97
2023-01-29T15:08:21.631Z,101080.28
2023-01-29T15:11:12.958Z,101064.94
2023-01-29T15:13:47.607Z,101068.47
2023-01-29T15:16:19.660Z,101057.63
2023-01-29T15:18:46.406Z,101056.78
2023-01-29T15:21:16.300Z,101055.13
2023-01-29T15:23:44.320Z,101052.88
2023-01-29T15:26:11.795Z,101043.69
2023-01-29T15:28:39.044Z,101048.09
2023-01-29T15:31:07.777Z,101055.22
2023-01-29T15:33:38.690Z,101060.88
2023-01-29T15:36:07.829Z,101056.25
2023-01-29T15:38:35.036Z,101056.25
2023-01-29T15:41:17.636Z,101066.00
2023-01-29T15:43:45.645Z,101056.00
2023-01-29T15:46:15.274Z,101060.63
2023-01-29T15:48:42.395Z,101064.28
2023-01-29T15:51:13.428Z,101071.97
2023-01-29T15:53:43.554Z,101068.38
2023-01-29T15:56:11.033Z,101063.00
2023-01-29T15:58:37.768Z,101061.59
2023-01-29T16:01:04.693Z,101073.41
2023-01-29T16:03:31.791Z,101077.22
2023-01-29T16:06:00.861Z,101080.03
2023-01-29T16:08:30.273Z,101074.66
2023-01-29T16:10:58.030Z,101073.66
2023-01-29T16:13:25.869Z,101069.44
2023-01-29T16:16:01.974Z,101077.84
2023-01-29T16:18:29.746Z,101075.66
2023-01-29T16:21:05.559Z,101080.78
2023-01-29T16:23:37.703Z,101082.25
2023-01-29T16:26:07.526Z,101092.22
2023-01-29T16:28:40.500Z,101089.34
2023-01-29T16:31:07.281Z,101096.47
2023-01-29T16:33:35.531Z,101095.66
2023-01-29T16:36:05.769Z,101092.34
2023-01-29T16:38:33.070Z,101098.00
2023-01-29T16:41:13.519Z,101105.41
2023-01-29T16:43:45.417Z,101112.31
2023-01-29T16:46:38.644Z,101112.47
2023-01-29T16:49:25.643Z,101113.63
2023-01-29T16:51:52.779Z,101111.09
2023-01-29T16:54:23.618Z,101110.22
2023-01-29T16:56:53.641Z,101109.31
2023-01-29T16:59:26.958Z,101110.59
2023-01-29T17:01:54.777Z,101112.78
2023-01-29T17:04:21.571Z,101117.09
2023-01-29T17:06:49.419Z,101111.34
2023-01-29T17:09:25.501Z,101111.41
2023-01-29T17:11:56.111Z,101113.38
2023-01-29T17:14:23.402Z,101114.28
2023-01-29T17:16:53.845Z,101102.28
2023-01-29T17:19:21.590Z,101110.59
2023-01-29T17:21:50.524Z,101105.91
2023-01-29T17:24:17.137Z,101101.84
2023-01-29T17:26:43.875Z,101095.69
2023-01-29T17:29:15.512Z,101090.53
2023-01-29T17:31:42.990Z,101092.09
2023-01-29T17:34:14.200Z,101093.53
2023-01-29T17:36:41.363Z,101082.09
2023-01-29T17:39:12.679Z,101079.13
2023-01-29T17:41:39.404Z,101080.66
2023-01-29T17:44:08.325Z,101081.75
2023-01-29T17:46:34.928Z,101075.97
2023-01-29T17:49:02.880Z,101084.38
2023-01-29T17:51:29.606Z,101083.03
2023-01-29T17:53:56.189Z,101077.97
2023-01-29T17:56:29.696Z,101072.63
2023-01-29T17:58:58.722Z,101069.88
2023-01-29T18:01:31.629Z,101066.69
2023-01-29T18:04:01.111Z,101068.44
2023-01-29T18:06:30.263Z,101069.00
2023-01-29T18:08:57.132Z,101067.63
2023-01-29T18:11:26.093Z,101062.53
2023-01-29T18:13:55.613Z,101061.09
2023-01-29T18:16:22.466Z,101061.28
2023-01-29T18:18:51.974Z,101060.44
2023-01-29T18:21:22.679Z,101059.22
2023-01-29T18:23:49.462Z,101056.88
2023-01-29T18:26:16.581Z,101053.09
2023-01-29T18:28:45.813Z,101053.38
2023-01-29T18:31:15.424Z,101047.66
2023-01-29T18:33:44.470Z,101047.19
2023-01-29T18:36:15.956Z,101051.19
2023-01-29T18:38:42.707Z,101044.84
2023-01-29T18:41:10.822Z,101037.44
2023-01-29T18:43:40.849Z,101037.34
2023-01-29T18:46:07.970Z,101042.44
2023-01-29T18:48:34.998Z,101044.50
2023-01-29T18:51:01.685Z,101044.88
2023-01-29T18:53:30.764Z,101048.69
2023-01-29T18:56:05.060Z,101056.13
2023-01-29T18:58:36.789Z,101056.78
2023-01-29T19:01:12.168Z,101044.06
2023-01-29T19:03:39.923Z,101049.19
2023-01-29T19:06:07.821Z,101048.91
2023-01-29T19:08:34.507Z,101051.94
2023-01-29T19:11:03.900Z,101049.75
2023-01-29T19:13:30.957Z,101047.03
2023-01-29T19:16:00.443Z,101037.13
2023-01-29T19:18:27.834Z,101038.59
2023-01-29T19:20:55.241Z,101046.19
2023-01-29T19:23:22.171Z,101036.69
2023-01-29T19:25:48.944Z,101041.56
2023-01-29T19:28:15.620Z,101039.50
2023-01-29T19:30:42.665Z,101038.91
2023-01-29T19:33:11.755Z,101035.59
2023-01-29T19:35:38.424Z,101033.06
2023-01-29T19:38:07.547Z,101027.84
2023-01-29T19:40:38.762Z,101017.06
2023-01-29T19:43:06.027Z,101020.59
2023-01-29T19:45:43.120Z,101018.47
2023-01-29T19:48:21.901Z,101016.22
2023-01-29T19:50:56.129Z,101018.97
2023-01-29T19:53:23.159Z,101015.16
2023-01-29T19:55:57.425Z,101014.69
2023-01-29T19:58:25.127Z,101022.75
2023-01-29T20:00:56.407Z,101026.22
2023-01-29T20:03:23.690Z,101030.88
2023-01-29T20:05:50.432Z,101025.72
2023-01-29T20:08:20.739Z,101025.47
2023-01-29T20:10:48.635Z,101019.66
2023-01-29T20:13:15.510Z,101025.41
2023-01-29T20:15:48.478Z,101022.63
2023-01-29T20:18:15.345Z,101017.78
2023-01-29T20:20:42.846Z,101010.00
2023-01-29T20:23:12.101Z,101006.09
2023-01-29T20:25:38.729Z,101007.88
2023-01-29T20:28:06.034Z,101002.91
2023-01-29T20:30:33.803Z,100998.31
2023-01-29T20:33:00.676Z,100994.84
2023-01-29T20:35:28.952Z,100995.75
2023-01-29T20:37:55.639Z,100998.22
2023-01-29T20:40:24.957Z,101000.47
2023-01-29T20:42:51.794Z,100993.59
2023-01-29T20:45:22.232Z,100994.09
2023-01-29T20:47:49.482Z,101005.66
2023-01-29T20:50:17.085Z,101003.84
2023-01-29T20:52:43.986Z,101007.59
2023-01-29T20:55:11.055Z,101005.81
2023-01-29T20:57:38.394Z,101008.56
2023-01-29T21:00:05.855Z,101010.09
2023-01-29T21:02:34.829Z,101008.78
2023-01-29T21:05:01.463Z,101014.25
2023-01-29T21:07:28.337Z,101022.88
2023-01-29T21:09:55.079Z,101027.09
2023-01-29T21:12:24.280Z,101024.13
2023-01-29T21:14:53.365Z,101029.38
2023-01-29T21:17:22.497Z,101035.28
2023-01-29T21:19:50.227Z,101033.84
2023-01-29T21:22:16.956Z,101038.66
2023-01-29T21:24:45.838Z,101035.50
2023-01-29T21:27:14.849Z,101042.28
2023-01-29T21:29:41.579Z,101041.88
2023-01-29T21:32:09.488Z,101032.94
2023-01-29T21:34:41.416Z,101031.97
2023-01-29T21:37:10.605Z,101034.41
2023-01-29T21:39:37.459Z,101036.56
2023-01-29T21:42:22.890Z,101037.34
2023-01-29T21:44:49.570Z,101033.91
2023-01-29T21:47:16.295Z,101029.97
2023-01-29T21:49:43.377Z,101033.00
2023-01-29T21:52:11.317Z,101023.72
2023-01-29T21:54:40.722Z,101023.38
2023-01-29T21:57:10.484Z,101024.06
2023-01-29T21:59:37.083Z,101022.75
2023-01-29T22:02:06.411Z,101018.00
2023-01-29T22:04:33.343Z,101013.53
2023-01-29T22:07:00.111Z,101018.22
2023-01-29T22:09:29.232Z,101005.06
2023-01-29T22:11:55.902Z,101000.50
2023-01-29T22:14:22.774Z,101001.41
2023-01-29T22:16:49.559Z,100992.19
2023-01-29T22:19:16.310Z,101000.50
2023-01-29T22:21:43.121Z,100984.81
2023-01-29T22:24:09.707Z,100993.75
2023-01-29T22:26:38.799Z,100983.34
2023-01-29T22:29:05.807Z,100982.63
2023-01-29T22:31:32.460Z,100979.19
2023-01-29T22:33:59.089Z,100972.31
2023-01-29T22:36:25.843Z,100968.59
2023-01-29T22:38:52.533Z,100968.25
2023-01-29T22:41:19.173Z,100965.50
2023-01-29T22:43:45.804Z,100965.63
2023-01-29T22:46:12.752Z,100958.47
2023-01-29T22:48:39.479Z,100961.06
2023-01-29T22:51:12.141Z,100957.28
2023-01-29T22:53:43.298Z,100955.84
2023-01-29T22:56:13.288Z,100948.97
2023-01-29T22:58:42.065Z,100950.34
2023-01-29T23:01:11.104Z,100954.06
2023-01-29T23:03:37.717Z,100947.91
2023-01-29T23:06:07.529Z,100942.06
2023-01-29T23:08:38.999Z,100943.69
2023-01-29T23:11:14.221Z,100943.34
2023-01-29T23:13:49.674Z,100928.50
2023-01-29T23:16:16.859Z,100934.63
2023-01-29T23:18:48.522Z,100932.50
2023-01-29T23:21:18.043Z,100935.19
2023-01-29T23:23:45.189Z,100937.50
2023-01-29T23:26:30.645Z,100929.59
2023-01-29T23:28:57.487Z,100927.31
2023-01-29T23:31:24.576Z,100923.34
2023-01-29T23:33:51.402Z,100922.28
2023-01-29T23:36:17.991Z,100920.88
2023-01-29T23:38:44.695Z,100915.97
2023-01-29T23:41:11.268Z,100915.09
2023-01-29T23:43:37.945Z,100907.28
2023-01-29T23:46:12.170Z,100910.53
2023-01-29T23:48:39.007Z,100904.81
2023-01-29T23:51:08.065Z,100903.28
2023-01-29T23:53:36.719Z,100902.50
2023-01-29T23:56:07.586Z,100903.63
2023-01-29T23:58:37.071Z,100901.13
